sensor_id;sensor_type;location;lat;lon;timestamp;P1;durP1;ratioP1;P2;durP2;ratioP2
64875;SDS011;51369;49.862;9.908;2022-07-03T00:02:02;2.55;;;1.63;;
64875;SDS011;51369;49.862;9.908;2022-07-03T00:04:28;2.08;;;1.25;;
64875;SDS011;51369;49.862;9.908;2022-07-03T00:06:54;1.42;;;1.33;;
64875;SDS011;51369;49.862;9.908;2022-07-03T00:09:20;2.17;;;1.48;;
64875;SDS011;51369;49.862;9.908;2022-07-03T00:11:45;2.67;;;1.60;;
64875;SDS011;51369;49.862;9.908;2022-07-03T00:14:11;1.50;;;1.40;;
64875;SDS011;51369;49.862;9.908;2022-07-03T00:16:37;2.38;;;1.45;;
64875;SDS011;51369;49.862;9.908;2022-07-03T00:19:02;2.13;;;1.55;;
64875;SDS011;51369;49.862;9.908;2022-07-03T00:21:31;3.55;;;1.60;;
64875;SDS011;51369;49.862;9.908;2022-07-03T00:24:02;2.70;;;1.83;;
64875;SDS011;51369;49.862;9.908;2022-07-03T00:26:32;4.65;;;1.60;;
64875;SDS011;51369;49.862;9.908;2022-07-03T00:28:59;3.78;;;1.30;;
64875;SDS011;51369;49.862;9.908;2022-07-03T00:31:27;3.38;;;1.63;;
64875;SDS011;51369;49.862;9.908;2022-07-03T00:33:57;1.40;;;1.30;;
64875;SDS011;51369;49.862;9.908;2022-07-03T00:36:25;2.90;;;1.45;;
64875;SDS011;51369;49.862;9.908;2022-07-03T00:38:54;2.20;;;1.63;;
64875;SDS011;51369;49.862;9.908;2022-07-03T00:41:24;1.50;;;1.40;;
64875;SDS011;51369;49.862;9.908;2022-07-03T00:43:51;1.67;;;1.52;;
64875;SDS011;51369;49.862;9.908;2022-07-03T00:46:17;2.00;;;1.80;;
64875;SDS011;51369;49.862;9.908;2022-07-03T00:48:46;3.33;;;1.60;;
64875;SDS011;51369;49.862;9.908;2022-07-03T00:51:14;8.10;;;1.48;;
64875;SDS011;51369;49.862;9.908;2022-07-03T00:53:40;1.60;;;1.27;;
64875;SDS011;51369;49.862;9.908;2022-07-03T00:56:07;1.85;;;1.50;;
64875;SDS011;51369;49.862;9.908;2022-07-03T00:58:37;1.67;;;1.40;;
64875;SDS011;51369;49.862;9.908;2022-07-03T01:01:03;2.05;;;1.40;;
64875;SDS011;51369;49.862;9.908;2022-07-03T01:03:31;1.70;;;1.60;;
64875;SDS011;51369;49.862;9.908;2022-07-03T01:06:03;1.73;;;1.40;;
64875;SDS011;51369;49.862;9.908;2022-07-03T01:08:47;1.60;;;1.50;;
64875;SDS011;51369;49.862;9.908;2022-07-03T01:11:28;3.58;;;1.52;;
64875;SDS011;51369;49.862;9.908;2022-07-03T01:17:05;3.70;;;1.98;;
64875;SDS011;51369;49.862;9.908;2022-07-03T01:22:12;3.75;;;1.52;;
64875;SDS011;51369;49.862;9.908;2022-07-03T01:27:23;4.15;;;1.60;;
64875;SDS011;51369;49.862;9.908;2022-07-03T01:32:27;1.70;;;1.60;;
64875;SDS011;51369;49.862;9.908;2022-07-03T01:35:22;1.67;;;1.50;;
64875;SDS011;51369;49.862;9.908;2022-07-03T01:37:52;3.92;;;1.60;;
64875;SDS011;51369;49.862;9.908;2022-07-03T01:40:20;2.00;;;1.88;;
64875;SDS011;51369;49.862;9.908;2022-07-03T01:42:47;2.78;;;1.65;;
64875;SDS011;51369;49.862;9.908;2022-07-03T01:45:15;2.13;;;1.75;;
64875;SDS011;51369;49.862;9.908;2022-07-03T01:47:45;2.63;;;1.55;;
64875;SDS011;51369;49.862;9.908;2022-07-03T01:50:13;1.95;;;1.48;;
64875;SDS011;51369;49.862;9.908;2022-07-03T01:52:40;2.78;;;1.70;;
64875;SDS011;51369;49.862;9.908;2022-07-03T01:55:07;1.90;;;1.60;;
64875;SDS011;51369;49.862;9.908;2022-07-03T01:57:41;2.50;;;2.10;;
64875;SDS011;51369;49.862;9.908;2022-07-03T02:00:10;3.03;;;1.95;;
64875;SDS011;51369;49.862;9.908;2022-07-03T02:02:40;2.58;;;2.10;;
64875;SDS011;51369;49.862;9.908;2022-07-03T02:05:14;3.83;;;1.77;;
64875;SDS011;51369;49.862;9.908;2022-07-03T02:07:58;3.33;;;2.10;;
64875;SDS011;51369;49.862;9.908;2022-07-03T02:10:29;2.20;;;2.00;;
64875;SDS011;51369;49.862;9.908;2022-07-03T02:13:02;4.07;;;1.70;;
64875;SDS011;51369;49.862;9.908;2022-07-03T02:15:34;3.42;;;2.00;;
64875;SDS011;51369;49.862;9.908;2022-07-03T02:18:02;1.75;;;1.58;;
64875;SDS011;51369;49.862;9.908;2022-07-03T02:20:36;1.52;;;1.42;;
64875;SDS011;51369;49.862;9.908;2022-07-03T02:23:09;3.10;;;1.52;;
64875;SDS011;51369;49.862;9.908;2022-07-03T02:25:36;2.00;;;1.70;;
64875;SDS011;51369;49.862;9.908;2022-07-03T02:28:11;2.72;;;1.98;;
64875;SDS011;51369;49.862;9.908;2022-07-03T02:30:43;1.70;;;1.60;;
64875;SDS011;51369;49.862;9.908;2022-07-03T02:33:14;2.05;;;1.85;;
64875;SDS011;51369;49.862;9.908;2022-07-03T02:35:44;3.85;;;1.77;;
64875;SDS011;51369;49.862;9.908;2022-07-03T02:38:17;8.05;;;1.98;;
64875;SDS011;51369;49.862;9.908;2022-07-03T02:52:07;2.80;;;1.90;;
64875;SDS011;51369;49.862;9.908;2022-07-03T02:54:44;4.13;;;2.10;;
64875;SDS011;51369;49.862;9.908;2022-07-03T02:57:17;5.95;;;1.95;;
64875;SDS011;51369;49.862;9.908;2022-07-03T02:59:57;3.05;;;1.70;;
64875;SDS011;51369;49.862;9.908;2022-07-03T03:05:22;3.47;;;1.90;;
64875;SDS011;51369;49.862;9.908;2022-07-03T03:10:36;2.35;;;2.15;;
64875;SDS011;51369;49.862;9.908;2022-07-03T03:15:33;2.20;;;2.00;;
64875;SDS011;51369;49.862;9.908;2022-07-03T03:18:04;2.13;;;2.03;;
64875;SDS011;51369;49.862;9.908;2022-07-03T03:20:33;2.55;;;1.92;;
64875;SDS011;51369;49.862;9.908;2022-07-03T03:23:09;1.90;;;1.80;;
64875;SDS011;51369;49.862;9.908;2022-07-03T03:25:41;2.90;;;2.00;;
64875;SDS011;51369;49.862;9.908;2022-07-03T03:28:06;2.85;;;2.33;;
64875;SDS011;51369;49.862;9.908;2022-07-03T03:30:32;1.80;;;1.70;;
64875;SDS011;51369;49.862;9.908;2022-07-03T03:32:57;2.22;;;1.88;;
64875;SDS011;51369;49.862;9.908;2022-07-03T03:35:23;2.10;;;1.75;;
64875;SDS011;51369;49.862;9.908;2022-07-03T03:37:49;2.25;;;1.80;;
64875;SDS011;51369;49.862;9.908;2022-07-03T03:40:18;3.38;;;1.88;;
64875;SDS011;51369;49.862;9.908;2022-07-03T03:42:43;5.85;;;2.28;;
64875;SDS011;51369;49.862;9.908;2022-07-03T03:45:09;2.00;;;1.80;;
64875;SDS011;51369;49.862;9.908;2022-07-03T03:47:35;6.85;;;2.00;;
64875;SDS011;51369;49.862;9.908;2022-07-03T03:50:00;2.40;;;1.88;;
64875;SDS011;51369;49.862;9.908;2022-07-03T03:52:27;2.50;;;1.90;;
64875;SDS011;51369;49.862;9.908;2022-07-03T03:54:54;1.83;;;1.73;;
64875;SDS011;51369;49.862;9.908;2022-07-03T03:57:21;2.20;;;2.00;;
64875;SDS011;51369;49.862;9.908;2022-07-03T03:59:47;3.67;;;2.00;;
64875;SDS011;51369;49.862;9.908;2022-07-03T04:02:14;5.47;;;1.90;;
64875;SDS011;51369;49.862;9.908;2022-07-03T04:04:40;2.85;;;2.00;;
64875;SDS011;51369;49.862;9.908;2022-07-03T04:07:05;2.33;;;2.03;;
64875;SDS011;51369;49.862;9.908;2022-07-03T04:09:31;4.07;;;1.88;;
64875;SDS011;51369;49.862;9.908;2022-07-03T04:11:57;2.95;;;2.00;;
64875;SDS011;51369;49.862;9.908;2022-07-03T04:14:22;2.33;;;1.80;;
64875;SDS011;51369;49.862;9.908;2022-07-03T04:16:48;4.60;;;2.25;;
64875;SDS011;51369;49.862;9.908;2022-07-03T04:19:13;2.47;;;1.77;;
64875;SDS011;51369;49.862;9.908;2022-07-03T04:21:39;2.40;;;2.20;;
64875;SDS011;51369;49.862;9.908;2022-07-03T04:24:04;2.50;;;1.70;;
64875;SDS011;51369;49.862;9.908;2022-07-03T04:26:30;3.70;;;2.10;;
64875;SDS011;51369;49.862;9.908;2022-07-03T04:28:55;4.25;;;2.28;;
64875;SDS011;51369;49.862;9.908;2022-07-03T04:31:21;4.82;;;1.92;;
64875;SDS011;51369;49.862;9.908;2022-07-03T04:33:46;4.45;;;2.15;;
64875;SDS011;51369;49.862;9.908;2022-07-03T04:36:12;5.95;;;1.88;;
64875;SDS011;51369;49.862;9.908;2022-07-03T04:38:37;4.10;;;2.28;;
64875;SDS011;51369;49.862;9.908;2022-07-03T04:41:03;2.15;;;2.00;;
64875;SDS011;51369;49.862;9.908;2022-07-03T04:43:28;2.30;;;2.10;;
64875;SDS011;51369;49.862;9.908;2022-07-03T04:45:53;2.72;;;2.10;;
64875;SDS011;51369;49.862;9.908;2022-07-03T04:48:19;6.07;;;2.40;;
64875;SDS011;51369;49.862;9.908;2022-07-03T04:50:44;2.30;;;2.10;;
64875;SDS011;51369;49.862;9.908;2022-07-03T04:53:10;4.25;;;2.28;;
64875;SDS011;51369;49.862;9.908;2022-07-03T04:55:35;2.97;;;2.40;;
64875;SDS011;51369;49.862;9.908;2022-07-03T04:58:01;3.20;;;2.30;;
64875;SDS011;51369;49.862;9.908;2022-07-03T05:00:27;2.55;;;2.33;;
64875;SDS011;51369;49.862;9.908;2022-07-03T05:02:52;3.08;;;2.30;;
64875;SDS011;51369;49.862;9.908;2022-07-03T05:05:18;4.13;;;2.20;;
64875;SDS011;51369;49.862;9.908;2022-07-03T05:07:43;2.10;;;1.90;;
64875;SDS011;51369;49.862;9.908;2022-07-03T05:10:09;5.65;;;2.20;;
64875;SDS011;51369;49.862;9.908;2022-07-03T05:12:35;2.78;;;2.35;;
64875;SDS011;51369;49.862;9.908;2022-07-03T05:15:00;3.47;;;2.47;;
64875;SDS011;51369;49.862;9.908;2022-07-03T05:17:26;2.30;;;2.10;;
64875;SDS011;51369;49.862;9.908;2022-07-03T05:19:51;4.18;;;2.28;;
64875;SDS011;51369;49.862;9.908;2022-07-03T05:22:37;3.60;;;2.78;;
64875;SDS011;51369;49.862;9.908;2022-07-03T05:25:02;2.45;;;2.15;;
64875;SDS011;51369;49.862;9.908;2022-07-03T05:27:28;3.17;;;2.50;;
64875;SDS011;51369;49.862;9.908;2022-07-03T05:29:53;4.93;;;2.50;;
64875;SDS011;51369;49.862;9.908;2022-07-03T05:32:18;3.13;;;2.05;;
64875;SDS011;51369;49.862;9.908;2022-07-03T05:34:44;4.55;;;2.15;;
64875;SDS011;51369;49.862;9.908;2022-07-03T05:37:09;4.70;;;2.40;;
64875;SDS011;51369;49.862;9.908;2022-07-03T05:39:34;4.72;;;2.70;;
64875;SDS011;51369;49.862;9.908;2022-07-03T05:42:02;4.43;;;2.42;;
64875;SDS011;51369;49.862;9.908;2022-07-03T05:44:28;3.67;;;2.85;;
64875;SDS011;51369;49.862;9.908;2022-07-03T05:46:54;5.15;;;2.70;;
64875;SDS011;51369;49.862;9.908;2022-07-03T05:49:20;6.82;;;2.90;;
64875;SDS011;51369;49.862;9.908;2022-07-03T05:51:45;3.03;;;2.72;;
64875;SDS011;51369;49.862;9.908;2022-07-03T05:54:11;10.15;;;3.17;;
64875;SDS011;51369;49.862;9.908;2022-07-03T05:56:36;3.35;;;3.05;;
64875;SDS011;51369;49.862;9.908;2022-07-03T05:59:01;3.08;;;2.75;;
64875;SDS011;51369;49.862;9.908;2022-07-03T06:01:27;3.42;;;3.13;;
64875;SDS011;51369;49.862;9.908;2022-07-03T06:03:52;2.63;;;2.42;;
64875;SDS011;51369;49.862;9.908;2022-07-03T06:06:18;6.93;;;2.78;;
64875;SDS011;51369;49.862;9.908;2022-07-03T06:08:43;4.90;;;2.90;;
64875;SDS011;51369;49.862;9.908;2022-07-03T06:11:08;3.55;;;2.80;;
64875;SDS011;51369;49.862;9.908;2022-07-03T06:13:34;6.50;;;3.78;;
64875;SDS011;51369;49.862;9.908;2022-07-03T06:15:59;3.10;;;2.83;;
64875;SDS011;51369;49.862;9.908;2022-07-03T06:18:25;3.25;;;2.85;;
64875;SDS011;51369;49.862;9.908;2022-07-03T06:20:51;4.00;;;3.05;;
64875;SDS011;51369;49.862;9.908;2022-07-03T06:23:16;3.38;;;2.15;;
64875;SDS011;51369;49.862;9.908;2022-07-03T06:25:41;2.72;;;2.53;;
64875;SDS011;51369;49.862;9.908;2022-07-03T06:28:07;2.55;;;2.30;;
64875;SDS011;51369;49.862;9.908;2022-07-03T06:30:32;3.38;;;2.63;;
64875;SDS011;51369;49.862;9.908;2022-07-03T06:32:58;3.17;;;2.25;;
64875;SDS011;51369;49.862;9.908;2022-07-03T06:35:24;5.22;;;2.67;;
64875;SDS011;51369;49.862;9.908;2022-07-03T06:37:49;2.95;;;2.28;;
64875;SDS011;51369;49.862;9.908;2022-07-03T06:40:14;4.35;;;2.25;;
64875;SDS011;51369;49.862;9.908;2022-07-03T06:42:40;3.75;;;2.30;;
64875;SDS011;51369;49.862;9.908;2022-07-03T06:45:05;5.00;;;2.17;;
64875;SDS011;51369;49.862;9.908;2022-07-03T06:47:35;4.93;;;2.10;;
64875;SDS011;51369;49.862;9.908;2022-07-03T06:50:02;3.15;;;2.00;;
64875;SDS011;51369;49.862;9.908;2022-07-03T06:52:28;2.42;;;2.22;;
64875;SDS011;51369;49.862;9.908;2022-07-03T06:54:53;2.55;;;1.95;;
64875;SDS011;51369;49.862;9.908;2022-07-03T06:57:18;2.70;;;1.90;;
64875;SDS011;51369;49.862;9.908;2022-07-03T06:59:44;3.33;;;1.90;;
64875;SDS011;51369;49.862;9.908;2022-07-03T07:02:09;2.38;;;2.17;;
64875;SDS011;51369;49.862;9.908;2022-07-03T07:04:35;2.33;;;1.98;;
64875;SDS011;51369;49.862;9.908;2022-07-03T07:07:00;2.35;;;1.90;;
64875;SDS011;51369;49.862;9.908;2022-07-03T07:09:26;1.90;;;1.80;;
64875;SDS011;51369;49.862;9.908;2022-07-03T07:11:51;4.38;;;2.05;;
64875;SDS011;51369;49.862;9.908;2022-07-03T07:14:17;2.67;;;2.05;;
64875;SDS011;51369;49.862;9.908;2022-07-03T07:16:42;4.78;;;2.45;;
64875;SDS011;51369;49.862;9.908;2022-07-03T07:19:07;1.98;;;1.88;;
64875;SDS011;51369;49.862;9.908;2022-07-03T07:21:33;2.88;;;1.70;;
64875;SDS011;51369;49.862;9.908;2022-07-03T07:23:58;3.20;;;2.08;;
64875;SDS011;51369;49.862;9.908;2022-07-03T07:26:24;3.97;;;1.83;;
64875;SDS011;51369;49.862;9.908;2022-07-03T07:28:49;3.45;;;2.13;;
64875;SDS011;51369;49.862;9.908;2022-07-03T07:31:15;2.20;;;2.00;;
64875;SDS011;51369;49.862;9.908;2022-07-03T07:33:40;2.85;;;2.03;;
64875;SDS011;51369;49.862;9.908;2022-07-03T07:36:06;3.55;;;2.00;;
64875;SDS011;51369;49.862;9.908;2022-07-03T07:38:31;2.25;;;2.05;;
64875;SDS011;51369;49.862;9.908;2022-07-03T07:40:58;2.60;;;1.98;;
64875;SDS011;51369;49.862;9.908;2022-07-03T07:43:24;4.00;;;2.03;;
64875;SDS011;51369;49.862;9.908;2022-07-03T07:45:49;1.90;;;1.80;;
64875;SDS011;51369;49.862;9.908;2022-07-03T07:48:15;2.85;;;1.80;;
64875;SDS011;51369;49.862;9.908;2022-07-03T07:50:43;3.95;;;1.77;;
64875;SDS011;51369;49.862;9.908;2022-07-03T07:53:08;3.20;;;2.38;;
64875;SDS011;51369;49.862;9.908;2022-07-03T07:55:34;1.83;;;1.70;;
64875;SDS011;51369;49.862;9.908;2022-07-03T07:57:59;2.88;;;1.90;;
64875;SDS011;51369;49.862;9.908;2022-07-03T08:00:25;2.85;;;1.90;;
64875;SDS011;51369;49.862;9.908;2022-07-03T08:02:50;2.38;;;2.00;;
64875;SDS011;51369;49.862;9.908;2022-07-03T08:05:34;2.20;;;2.00;;
64875;SDS011;51369;49.862;9.908;2022-07-03T08:08:04;2.47;;;2.00;;
64875;SDS011;51369;49.862;9.908;2022-07-03T08:10:38;2.45;;;1.95;;
64875;SDS011;51369;49.862;9.908;2022-07-03T08:13:24;2.53;;;1.88;;
64875;SDS011;51369;49.862;9.908;2022-07-03T08:15:49;1.60;;;1.50;;
64875;SDS011;51369;49.862;9.908;2022-07-03T08:18:14;1.90;;;1.45;;
64875;SDS011;51369;49.862;9.908;2022-07-03T08:20:40;3.35;;;1.90;;
64875;SDS011;51369;49.862;9.908;2022-07-03T08:23:05;2.42;;;1.95;;
64875;SDS011;51369;49.862;9.908;2022-07-03T08:25:31;2.10;;;1.90;;
64875;SDS011;51369;49.862;9.908;2022-07-03T08:27:57;1.85;;;1.75;;
64875;SDS011;51369;49.862;9.908;2022-07-03T08:30:23;2.92;;;1.90;;
64875;SDS011;51369;49.862;9.908;2022-07-03T08:32:50;1.70;;;1.60;;
64875;SDS011;51369;49.862;9.908;2022-07-03T08:35:17;1.85;;;1.70;;
64875;SDS011;51369;49.862;9.908;2022-07-03T08:37:42;1.83;;;1.65;;
64875;SDS011;51369;49.862;9.908;2022-07-03T08:40:11;1.70;;;1.60;;
64875;SDS011;51369;49.862;9.908;2022-07-03T08:42:38;1.73;;;1.63;;
64875;SDS011;51369;49.862;9.908;2022-07-03T08:45:07;2.03;;;1.73;;
64875;SDS011;51369;49.862;9.908;2022-07-03T08:47:38;2.65;;;1.73;;
64875;SDS011;51369;49.862;9.908;2022-07-03T08:50:05;1.70;;;1.60;;
64875;SDS011;51369;49.862;9.908;2022-07-03T08:52:31;5.32;;;1.60;;
64875;SDS011;51369;49.862;9.908;2022-07-03T08:54:59;2.03;;;1.80;;
64875;SDS011;51369;49.862;9.908;2022-07-03T08:57:25;6.13;;;1.90;;
64875;SDS011;51369;49.862;9.908;2022-07-03T08:59:53;1.50;;;1.30;;
64875;SDS011;51369;49.862;9.908;2022-07-03T09:02:19;1.52;;;1.42;;
64875;SDS011;51369;49.862;9.908;2022-07-03T09:04:46;1.50;;;1.40;;
64875;SDS011;51369;49.862;9.908;2022-07-03T09:07:11;1.60;;;1.50;;
64875;SDS011;51369;49.862;9.908;2022-07-03T09:09:39;2.88;;;1.50;;
64875;SDS011;51369;49.862;9.908;2022-07-03T09:12:05;1.65;;;1.55;;
64875;SDS011;51369;49.862;9.908;2022-07-03T09:14:30;1.40;;;1.30;;
64875;SDS011;51369;49.862;9.908;2022-07-03T09:16:57;1.50;;;1.40;;
64875;SDS011;51369;49.862;9.908;2022-07-03T09:25:08;4.30;;;1.20;;
64875;SDS011;51369;49.862;9.908;2022-07-03T09:27:35;1.52;;;1.40;;
64875;SDS011;51369;49.862;9.908;2022-07-03T09:30:06;1.88;;;1.35;;
64875;SDS011;51369;49.862;9.908;2022-07-03T09:35:14;2.63;;;1.60;;
64875;SDS011;51369;49.862;9.908;2022-07-03T09:43:11;1.50;;;1.40;;
64875;SDS011;51369;49.862;9.908;2022-07-03T09:45:53;1.70;;;1.30;;
64875;SDS011;51369;49.862;9.908;2022-07-03T09:51:18;2.38;;;1.13;;
64875;SDS011;51369;49.862;9.908;2022-07-03T09:53:55;2.20;;;1.25;;
64875;SDS011;51369;49.862;9.908;2022-07-03T09:56:29;1.45;;;1.23;;
64875;SDS011;51369;49.862;9.908;2022-07-03T09:59:13;1.60;;;1.20;;
64875;SDS011;51369;49.862;9.908;2022-07-03T10:01:40;2.42;;;1.35;;
64875;SDS011;51369;49.862;9.908;2022-07-03T10:04:15;2.58;;;1.30;;
64875;SDS011;51369;49.862;9.908;2022-07-03T10:06:57;1.42;;;1.10;;
64875;SDS011;51369;49.862;9.908;2022-07-03T10:09:28;1.80;;;1.25;;
64875;SDS011;51369;49.862;9.908;2022-07-03T10:11:55;1.30;;;1.20;;
64875;SDS011;51369;49.862;9.908;2022-07-03T10:14:22;1.63;;;1.33;;
64875;SDS011;51369;49.862;9.908;2022-07-03T10:16:52;1.50;;;1.40;;
64875;SDS011;51369;49.862;9.908;2022-07-03T10:19:18;1.25;;;1.15;;
64875;SDS011;51369;49.862;9.908;2022-07-03T10:24:18;5.47;;;1.45;;
64875;SDS011;51369;49.862;9.908;2022-07-03T10:26:45;1.60;;;1.27;;
64875;SDS011;51369;49.862;9.908;2022-07-03T10:29:12;2.13;;;1.85;;
64875;SDS011;51369;49.862;9.908;2022-07-03T10:31:41;5.18;;;1.70;;
64875;SDS011;51369;49.862;9.908;2022-07-03T10:34:20;1.65;;;1.55;;
64875;SDS011;51369;49.862;9.908;2022-07-03T10:36:47;3.15;;;1.90;;
64875;SDS011;51369;49.862;9.908;2022-07-03T10:39:22;1.35;;;1.25;;
64875;SDS011;51369;49.862;9.908;2022-07-03T10:41:54;2.88;;;2.53;;
64875;SDS011;51369;49.862;9.908;2022-07-03T10:45:03;1.73;;;1.50;;
64875;SDS011;51369;49.862;9.908;2022-07-03T10:50:22;2.22;;;1.65;;
64875;SDS011;51369;49.862;9.908;2022-07-03T10:52:48;1.60;;;1.50;;
64875;SDS011;51369;49.862;9.908;2022-07-03T10:55:15;2.42;;;1.70;;
64875;SDS011;51369;49.862;9.908;2022-07-03T10:58:27;2.55;;;1.70;;
64875;SDS011;51369;49.862;9.908;2022-07-03T11:00:52;4.13;;;3.03;;
64875;SDS011;51369;49.862;9.908;2022-07-03T11:06:20;1.55;;;1.45;;
64875;SDS011;51369;49.862;9.908;2022-07-03T11:09:06;2.13;;;1.30;;
64875;SDS011;51369;49.862;9.908;2022-07-03T11:11:44;1.25;;;1.20;;
64875;SDS011;51369;49.862;9.908;2022-07-03T11:14:24;1.98;;;1.40;;
64875;SDS011;51369;49.862;9.908;2022-07-03T11:19:46;2.40;;;1.23;;
64875;SDS011;51369;49.862;9.908;2022-07-03T11:22:52;2.72;;;1.35;;
64875;SDS011;51369;49.862;9.908;2022-07-03T11:25:25;1.67;;;1.48;;
64875;SDS011;51369;49.862;9.908;2022-07-03T11:27:50;1.75;;;1.58;;
64875;SDS011;51369;49.862;9.908;2022-07-03T11:30:18;7.65;;;1.45;;
64875;SDS011;51369;49.862;9.908;2022-07-03T11:32:48;1.30;;;1.20;;
64875;SDS011;51369;49.862;9.908;2022-07-03T11:38:08;1.63;;;1.17;;
64875;SDS011;51369;49.862;9.908;2022-07-03T11:40:34;1.55;;;1.25;;
64875;SDS011;51369;49.862;9.908;2022-07-03T11:43:03;1.20;;;1.10;;
64875;SDS011;51369;49.862;9.908;2022-07-03T11:45:30;1.88;;;1.27;;
64875;SDS011;51369;49.862;9.908;2022-07-03T11:47:56;1.30;;;1.20;;
64875;SDS011;51369;49.862;9.908;2022-07-03T11:50:35;1.92;;;1.05;;
64875;SDS011;51369;49.862;9.908;2022-07-03T11:55:57;1.40;;;1.30;;
64875;SDS011;51369;49.862;9.908;2022-07-03T11:58:25;1.85;;;1.15;;
64875;SDS011;51369;49.862;9.908;2022-07-03T12:00:52;1.63;;;1.10;;
64875;SDS011;51369;49.862;9.908;2022-07-03T12:03:23;1.42;;;1.33;;
64875;SDS011;51369;49.862;9.908;2022-07-03T12:05:54;2.08;;;1.38;;
64875;SDS011;51369;49.862;9.908;2022-07-03T12:08:30;2.47;;;1.00;;
64875;SDS011;51369;49.862;9.908;2022-07-03T12:10:57;1.75;;;1.05;;
64875;SDS011;51369;49.862;9.908;2022-07-03T12:13:25;1.40;;;1.20;;
64875;SDS011;51369;49.862;9.908;2022-07-03T12:15:51;3.65;;;2.20;;
64875;SDS011;51369;49.862;9.908;2022-07-03T12:18:16;1.67;;;1.20;;
64875;SDS011;51369;49.862;9.908;2022-07-03T12:20:43;1.83;;;1.30;;
64875;SDS011;51369;49.862;9.908;2022-07-03T12:23:08;1.70;;;1.25;;
64875;SDS011;51369;49.862;9.908;2022-07-03T12:25:41;1.45;;;1.15;;
64875;SDS011;51369;49.862;9.908;2022-07-03T12:28:09;4.35;;;1.05;;
64875;SDS011;51369;49.862;9.908;2022-07-03T12:30:35;5.18;;;1.30;;
64875;SDS011;51369;49.862;9.908;2022-07-03T12:33:02;1.70;;;1.08;;
64875;SDS011;51369;49.862;9.908;2022-07-03T12:35:28;3.05;;;1.45;;
64875;SDS011;51369;49.862;9.908;2022-07-03T12:37:54;1.40;;;1.30;;
64875;SDS011;51369;49.862;9.908;2022-07-03T12:40:20;1.02;;;1.02;;
64875;SDS011;51369;49.862;9.908;2022-07-03T12:42:51;2.83;;;1.30;;
64875;SDS011;51369;49.862;9.908;2022-07-03T12:45:23;1.77;;;1.10;;
64875;SDS011;51369;49.862;9.908;2022-07-03T12:48:00;1.13;;;1.10;;
64875;SDS011;51369;49.862;9.908;2022-07-03T12:50:46;1.02;;;1.02;;
64875;SDS011;51369;49.862;9.908;2022-07-03T12:53:26;9.88;;;1.67;;
64875;SDS011;51369;49.862;9.908;2022-07-03T12:55:52;1.17;;;1.17;;
64875;SDS011;51369;49.862;9.908;2022-07-03T12:58:22;5.57;;;1.27;;
64875;SDS011;51369;49.862;9.908;2022-07-03T13:01:06;3.70;;;1.27;;
64875;SDS011;51369;49.862;9.908;2022-07-03T13:03:48;2.70;;;1.38;;
64875;SDS011;51369;49.862;9.908;2022-07-03T13:06:14;1.35;;;1.27;;
64875;SDS011;51369;49.862;9.908;2022-07-03T13:08:48;1.00;;;1.00;;
64875;SDS011;51369;49.862;9.908;2022-07-03T13:11:42;1.80;;;1.45;;
64875;SDS011;51369;49.862;9.908;2022-07-03T13:16:39;2.38;;;1.35;;
64875;SDS011;51369;49.862;9.908;2022-07-03T13:21:32;1.30;;;1.20;;
64875;SDS011;51369;49.862;9.908;2022-07-03T13:23:58;1.38;;;1.17;;
64875;SDS011;51369;49.862;9.908;2022-07-03T13:26:24;1.60;;;1.40;;
64875;SDS011;51369;49.862;9.908;2022-07-03T13:28:49;1.30;;;1.20;;
64875;SDS011;51369;49.862;9.908;2022-07-03T13:31:15;2.63;;;1.27;;
64875;SDS011;51369;49.862;9.908;2022-07-03T13:33:40;1.52;;;1.42;;
64875;SDS011;51369;49.862;9.908;2022-07-03T13:36:06;4.38;;;1.30;;
64875;SDS011;51369;49.862;9.908;2022-07-03T13:38:31;1.20;;;1.20;;
64875;SDS011;51369;49.862;9.908;2022-07-03T13:40:56;1.52;;;1.40;;
64875;SDS011;51369;49.862;9.908;2022-07-03T13:43:22;1.25;;;1.25;;
64875;SDS011;51369;49.862;9.908;2022-07-03T13:45:47;2.00;;;1.27;;
64875;SDS011;51369;49.862;9.908;2022-07-03T13:48:13;1.27;;;1.27;;
64875;SDS011;51369;49.862;9.908;2022-07-03T13:50:42;1.33;;;1.30;;
64875;SDS011;51369;49.862;9.908;2022-07-03T13:53:08;1.67;;;1.40;;
64875;SDS011;51369;49.862;9.908;2022-07-03T13:55:34;2.63;;;1.50;;
64875;SDS011;51369;49.862;9.908;2022-07-03T13:57:59;1.65;;;1.50;;
64875;SDS011;51369;49.862;9.908;2022-07-03T14:00:29;1.63;;;1.23;;
64875;SDS011;51369;49.862;9.908;2022-07-03T14:02:55;1.60;;;1.50;;
64875;SDS011;51369;49.862;9.908;2022-07-03T14:05:21;2.10;;;1.60;;
64875;SDS011;51369;49.862;9.908;2022-07-03T14:07:46;2.58;;;1.23;;
64875;SDS011;51369;49.862;9.908;2022-07-03T14:10:13;4.03;;;1.40;;
64875;SDS011;51369;49.862;9.908;2022-07-03T14:12:39;4.63;;;1.52;;
64875;SDS011;51369;49.862;9.908;2022-07-03T14:15:05;3.70;;;1.30;;
64875;SDS011;51369;49.862;9.908;2022-07-03T14:17:31;3.95;;;1.40;;
64875;SDS011;51369;49.862;9.908;2022-07-03T14:19:57;1.50;;;1.40;;
64875;SDS011;51369;49.862;9.908;2022-07-03T14:22:23;2.15;;;1.60;;
64875;SDS011;51369;49.862;9.908;2022-07-03T14:24:48;1.15;;;1.13;;
64875;SDS011;51369;49.862;9.908;2022-07-03T14:27:14;1.92;;;1.35;;
64875;SDS011;51369;49.862;9.908;2022-07-03T14:29:58;1.55;;;1.40;;
64875;SDS011;51369;49.862;9.908;2022-07-03T14:32:42;1.45;;;1.35;;
64875;SDS011;51369;49.862;9.908;2022-07-03T14:35:08;1.45;;;1.35;;
64875;SDS011;51369;49.862;9.908;2022-07-03T14:37:33;2.60;;;1.25;;
64875;SDS011;51369;49.862;9.908;2022-07-03T14:39:59;4.50;;;1.65;;
64875;SDS011;51369;49.862;9.908;2022-07-03T14:42:24;1.90;;;1.60;;
64875;SDS011;51369;49.862;9.908;2022-07-03T14:44:50;1.60;;;1.55;;
64875;SDS011;51369;49.862;9.908;2022-07-03T14:47:16;3.08;;;1.40;;
64875;SDS011;51369;49.862;9.908;2022-07-03T14:49:42;1.83;;;1.55;;
64875;SDS011;51369;49.862;9.908;2022-07-03T14:52:07;4.32;;;1.67;;
64875;SDS011;51369;49.862;9.908;2022-07-03T14:54:33;1.48;;;1.30;;
64875;SDS011;51369;49.862;9.908;2022-07-03T14:57:00;3.17;;;1.50;;
64875;SDS011;51369;49.862;9.908;2022-07-03T15:02:04;2.67;;;1.40;;
64875;SDS011;51369;49.862;9.908;2022-07-03T15:06:59;2.80;;;1.40;;
64875;SDS011;51369;49.862;9.908;2022-07-03T15:09:28;1.58;;;1.42;;
64875;SDS011;51369;49.862;9.908;2022-07-03T15:11:57;2.97;;;1.25;;
64875;SDS011;51369;49.862;9.908;2022-07-03T15:14:45;1.92;;;1.58;;
64875;SDS011;51369;49.862;9.908;2022-07-03T15:17:15;1.67;;;1.42;;
64875;SDS011;51369;49.862;9.908;2022-07-03T15:19:41;4.07;;;1.50;;
64875;SDS011;51369;49.862;9.908;2022-07-03T15:22:08;3.85;;;1.60;;
64875;SDS011;51369;49.862;9.908;2022-07-03T15:24:36;1.58;;;1.48;;
64875;SDS011;51369;49.862;9.908;2022-07-03T15:27:02;2.60;;;1.70;;
64875;SDS011;51369;49.862;9.908;2022-07-03T15:29:30;4.53;;;2.10;;
64875;SDS011;51369;49.862;9.908;2022-07-03T15:31:59;1.80;;;1.67;;
64875;SDS011;51369;49.862;9.908;2022-07-03T15:34:26;5.20;;;1.20;;
64875;SDS011;51369;49.862;9.908;2022-07-03T15:37:04;3.15;;;1.50;;
64875;SDS011;51369;49.862;9.908;2022-07-03T15:39:54;1.67;;;1.58;;
64875;SDS011;51369;49.862;9.908;2022-07-03T15:53:38;5.13;;;2.55;;
64875;SDS011;51369;49.862;9.908;2022-07-03T15:56:06;2.70;;;1.90;;
64875;SDS011;51369;49.862;9.908;2022-07-03T15:58:34;5.70;;;1.85;;
64875;SDS011;51369;49.862;9.908;2022-07-03T16:01:02;10.70;;;2.10;;
64875;SDS011;51369;49.862;9.908;2022-07-03T16:03:56;3.20;;;1.70;;
64875;SDS011;51369;49.862;9.908;2022-07-03T16:06:27;5.32;;;2.10;;
64875;SDS011;51369;49.862;9.908;2022-07-03T16:08:55;1.98;;;1.67;;
64875;SDS011;51369;49.862;9.908;2022-07-03T16:11:21;1.80;;;1.70;;
64875;SDS011;51369;49.862;9.908;2022-07-03T16:13:48;4.80;;;1.42;;
64875;SDS011;51369;49.862;9.908;2022-07-03T16:16:16;2.35;;;1.70;;
64875;SDS011;51369;49.862;9.908;2022-07-03T16:18:44;4.55;;;1.70;;
64875;SDS011;51369;49.862;9.908;2022-07-03T16:21:11;3.30;;;1.40;;
64875;SDS011;51369;49.862;9.908;2022-07-03T16:23:37;3.30;;;1.45;;